Race Coverage Navigation

TS # 47 / MCHENRY, MD  2019

 


TS STATS
TS Distance 55.9 
Total Distance 2775.74 
Miles To Go 266.1 
TS Climbing 2757 
Total Climbing
TS  Elevation
TS  Net Elevation 4415 
Map Filename Open Map 
Directions Filename  
Latitude 39.56 
Longitude -79.36 
Google Map  TimeStation Map 


TS Arrival Data
Arr Ord  #/Name Arrival DT TS Dst Avg This TS Avg Overall
 1 377 - Christoph Strasser  06/19/2019 5:19 55.9  9.11  15.36 
 2 279 - Marko Baloh  06/20/2019 11:57 55.9  13.14 
 3 609 - Jakob Olsen  06/20/2019 14:21 55.9  8.62  12.97 
 4 T411 - team alpha - tischlerei groemmer  06/20/2019 18:19 55.9  17.11  22.57 
 5 T800 - Backstedt Racing Project 14  06/20/2019 19:08 55.9  18.84  22.45 
 6 T404 - Gentlemen of speed  06/21/2019 2:53 55.9  15.67  21.08 
 7 T401 - Data Techniques powered by Networks Centre  06/21/2019 7:14 55.9  14.52  20.4 
 8 617 - SOLO.kiwi (Craig Harper)  06/21/2019 7:26 55.9  9.89  12.01 
 9 T805 - Team Oceanside  06/21/2019 7:55 55.9  16.94  20.36 
 10 T807 - Team ZOE International  06/21/2019 8:20 55.9  16.94  20.3 
 11 367 - Daniela Genovesi  06/21/2019 9:07 55.9  7.97  11.91 
 12 T407 - Julian Becker   06/21/2019 10:12 55.9  16.94  19.98 
 13 T201 - EAT WELL  06/21/2019 11:03 55.9  15.67  19.82 
 14 T802 - Scorchers  06/21/2019 11:41 55.9  16.94  19.8 
 15 416 - Leah Goldstein  06/21/2019 11:41 55.9  9.81  11.78 
 16 329 - Peter Oyler  06/21/2019 12:23 55.9  7.64  11.77 
 17 T804 - Team FSHD Skyland Trail  06/21/2019 13:47 55.9  17.03  19.52 
 18 623 - Ultra Paka Racing Team (Daniel Polman)  06/21/2019 13:48 55.9  9.19  11.68 
 19 622 - Thomas Odom-Team Kyle Pease Foundation  06/21/2019 14:16 55.9  17.47  11.66 
 20 T416 - Team Rotary Raams Polio  06/21/2019 14:55 55.9  13  19.35 
 21 T408 - Radeln-fuer-Kinder (Cycling-for-Kids)  06/21/2019 15:38 55.9  15.18  19.23 
 22 T808 - Antonia's Friends 2019  06/21/2019 18:06 55.9  17.11  18.95 
 23 611 - Marcelo Soares " MIXIRICA "  06/21/2019 18:09 55.9  10.07  11.48 
 24 T400 - Cantastic4  06/21/2019 18:43 55.9  15.11  18.81 
 25 615 - Philipp Amhof  06/21/2019 19:01 55.9  7.29  11.43 
 26 T406 - Operation Walk Midwest  06/21/2019 21:16 55.9  15.53  18.5 
 27 T418 - The Opportunists  06/21/2019 23:08 55.9  14.09  18.3 
 28 612 - Markus K. Brandl  06/21/2019 23:23 55.9  9.16  11.23 
 29 603 - Alan Bradley  06/21/2019 23:27 55.9  8.69  11.23 
 30 529 - Isa Pulver  06/22/2019 0:32 55.9  10.93  11.17 
 31 T410 - Soap-Aid  06/22/2019 5:14 55.9  16.36  17.58 
 32 510 - John C. Tarlton  06/22/2019 6:22 55.9  10.93 
 33 442 - Joe Barr  06/22/2019 6:24 55.9  8.97  10.93 
 34 411 - Geoff Brunner  06/22/2019 8:36 55.9  11.33  10.84 
 35 T412 - Team Aspect  06/22/2019 9:15 55.9  13.52  17.15 
 36 T803 - Team EndoPark  06/22/2019 9:32 55.9  1118  17.13 
 37 559 - Team Martin RAAM 2019 (Martin Bergmeister)  06/22/2019 9:33 55.9  5.85  10.8 
 38 T414 - Brazil Nuts  06/22/2019 10:13 55.9  17.75  17.05 
 39 T202 - Integra Medical - BAA Racing  06/22/2019 12:53 55.9  14.78  16.74 
 40 T405 - High Rollers  06/22/2019 13:02 55.9  13.8  16.74 
 41 T415 - TEAM FIRE VELO 935  06/22/2019 13:12 55.9  14.52  16.74 
 42 610 - Kabir Rachure  06/22/2019 13:51 55.9  11.14  10.61 
 43 618 - GREGORY ROBINSON  06/22/2019 14:24 55.9  11.73  10.59 
 44 T413 - TEAM BRASIL - SKIPPER  06/22/2019 16:01 55.9  14.27  16.46 
 45 T204 - Lucan CRC  06/22/2019 16:07 55.9  13.69  16.42 
 46 568 - Alexandra Meixner  06/22/2019 16:33 55.9  9.69  10.49 
 47 T200 - AIR RELAX GoPro TEAM BRASIL  06/22/2019 16:54 55.9  15.82  16.34 
 48 T206 - Project Linear Acceleration  06/22/2019 17:14 55.9  13.42  16.32 
 49 T402 - EA/WFP RAAM Team  06/22/2019 18:04 55.9  13.2  16.25 
 50 T801 - Mind Over Matter  06/22/2019 21:08 55.9  13.47  15.99 
 51 604 - Chieko Ozawa  06/22/2019 21:10 55.9  9.58  10.31 
 52 T806 - Team SuperMarrow  06/22/2019 21:54 55.9  14.27  15.92 
 53 T417 - Team4RAAM 2019 powered by TGW Living Logistics  06/22/2019 22:15 55.9  14.91  15.88 
 54 399 - Valerio Zamboni  06/23/2019 2:12 55.9  7.36  10.14 
 55 T403 - EKJ Denmark  06/23/2019 2:16 55.9  12.33  15.5 
 56 424 - Team i RON man Veterans supporting Veterans  06/23/2019 5:34 55.9  9.21  10.02 
 57 161 - Seana Hogan  06/23/2019 19:19 55.9  4.85  9.53 
 58 T207 - Team Life Time  06/23/2019 21:31 55.9  13.63  13.99 
 59 T210 - Bike Wine Team  06/24/2019 0:58 55.9  11.07  13.75